createdAt,value
2023-04-09T00:14:36.187Z,23.77
2023-04-09T00:25:50.547Z,24.83
2023-04-09T00:50:39.949Z,24.70
2023-04-09T02:25:13.488Z,25.87
2023-04-09T02:30:16.218Z,24.80
2023-04-09T02:35:20.189Z,26.77
2023-04-09T02:40:22.911Z,26.77
2023-04-09T02:45:25.598Z,26.03
2023-04-09T02:50:29.724Z,26.77
2023-04-09T02:55:32.600Z,25.73
2023-04-09T03:00:35.279Z,26.50
2023-04-09T03:05:39.296Z,25.53
2023-04-09T03:10:41.962Z,24.93
2023-04-09T03:15:44.627Z,25.77
2023-04-09T03:20:48.646Z,25.97
2023-04-09T03:26:00.706Z,26.17
2023-04-09T03:31:03.387Z,25.10
2023-04-09T03:36:07.799Z,25.53
2023-04-09T03:41:10.566Z,25.33
2023-04-09T03:46:13.839Z,24.40
2023-04-09T03:51:18.495Z,25.47
2023-04-09T03:56:21.183Z,24.20
2023-04-09T04:01:26.268Z,24.97
2023-04-09T04:06:31.292Z,25.23
2023-04-09T04:11:34.004Z,24.77
2023-04-09T04:16:36.717Z,25.30
2023-04-09T04:21:40.780Z,24.80
2023-04-09T04:26:43.437Z,26.10
2023-04-09T04:31:46.325Z,25.37
2023-04-09T04:36:50.319Z,25.20
2023-04-09T04:41:52.988Z,24.57
2023-04-09T04:46:55.640Z,24.03
2023-04-09T04:51:59.612Z,24.90
2023-04-09T04:57:02.317Z,24.20
2023-04-09T05:02:05.083Z,23.07
2023-04-09T05:07:09.150Z,22.10
2023-04-09T05:12:12.018Z,21.93
2023-04-09T05:17:15.544Z,22.87
2023-04-09T05:22:19.769Z,22.47
2023-04-09T05:27:24.244Z,22.73
2023-04-09T05:32:27.053Z,21.83
2023-04-09T05:37:31.229Z,23.40
2023-04-09T05:42:33.936Z,22.20
2023-04-09T05:47:36.622Z,21.53
2023-04-09T05:52:40.795Z,22.13
2023-04-09T05:57:45.388Z,21.67
2023-04-09T06:02:48.118Z,22.07
2023-04-09T06:07:52.292Z,22.03
2023-04-09T06:12:55.084Z,23.50
2023-04-09T06:17:59.423Z,22.03
2023-04-09T06:23:03.562Z,22.50
2023-04-09T06:28:06.637Z,20.90
2023-04-09T06:33:09.340Z,22.67
2023-04-09T06:38:13.397Z,22.23
2023-04-09T06:43:16.079Z,20.67
2023-04-09T06:48:18.849Z,22.10
2023-04-09T06:53:22.819Z,21.37
2023-04-09T06:58:25.907Z,21.67
2023-04-09T07:03:28.816Z,21.87
2023-04-09T07:08:33.073Z,22.83
2023-04-09T07:13:35.839Z,20.97
2023-04-09T07:18:38.580Z,22.80
2023-04-09T07:23:42.593Z,22.30
2023-04-09T07:28:48.055Z,21.53
2023-04-09T07:33:51.336Z,21.40
2023-04-09T07:38:55.521Z,20.83
2023-04-09T07:43:58.931Z,21.57
2023-04-09T07:49:01.707Z,21.73
2023-04-09T07:54:06.087Z,21.27
2023-04-09T07:59:08.776Z,20.70
2023-04-09T08:04:13.109Z,19.93
2023-04-09T08:09:17.669Z,20.03
2023-04-09T08:14:20.365Z,18.53
2023-04-09T08:19:23.016Z,19.37
2023-04-09T08:24:27.318Z,19.87
2023-04-09T08:29:43.409Z,19.70
2023-04-09T08:34:52.058Z,18.92
2023-04-09T08:40:35.116Z,18.10
2023-04-09T08:51:15.288Z,19.17
2023-04-09T08:56:42.720Z,18.80
2023-04-09T09:01:57.514Z,16.50
2023-04-09T09:07:19.578Z,15.60
2023-04-09T09:13:03.838Z,15.90
2023-04-09T09:18:16.564Z,16.17
2023-04-09T09:24:18.376Z,15.73
2023-04-09T09:29:36.660Z,16.13
2023-04-09T09:34:58.169Z,15.88
2023-04-09T09:41:02.441Z,16.30
2023-04-09T09:46:48.778Z,15.82
2023-04-09T09:52:57.676Z,15.63
2023-04-09T10:04:27.956Z,14.88
2023-04-09T10:10:17.407Z,13.85
2023-04-09T10:15:42.347Z,13.82
2023-04-09T10:21:14.992Z,13.52
2023-04-09T10:26:51.886Z,14.80
2023-04-09T10:37:38.722Z,15.45
2023-04-09T10:42:51.828Z,17.77
2023-04-09T10:48:00.082Z,17.98
2023-04-09T10:53:12.003Z,18.42
2023-04-09T10:58:19.920Z,19.13
2023-04-09T11:03:29.047Z,19.45
2023-04-09T11:08:53.631Z,17.80
2023-04-09T11:14:12.608Z,16.77
2023-04-09T11:19:26.994Z,14.65
2023-04-09T11:24:58.810Z,15.30
2023-04-09T11:30:13.797Z,15.23
2023-04-09T11:35:36.519Z,15.20
2023-04-09T11:40:53.885Z,13.50
2023-04-09T11:46:06.321Z,13.48
2023-04-09T11:51:12.767Z,13.00
2023-04-09T11:56:38.783Z,12.35
2023-04-09T12:02:14.344Z,13.60
2023-04-09T12:07:55.276Z,11.52
2023-04-09T12:14:17.864Z,11.68
2023-04-09T12:25:33.744Z,10.30
2023-04-09T12:30:42.091Z,14.60
2023-04-09T12:36:07.070Z,15.85
2023-04-09T12:41:12.500Z,15.85
2023-04-09T12:52:11.623Z,16.05
2023-04-09T12:57:36.046Z,15.85
2023-04-09T13:14:20.272Z,16.08
2023-04-09T13:19:49.215Z,15.27
2023-04-09T13:25:27.951Z,17.55
2023-04-09T13:30:55.331Z,17.73
2023-04-09T13:36:10.134Z,16.67
2023-04-09T13:41:15.490Z,17.10
2023-04-09T13:46:19.644Z,18.10
2023-04-09T13:51:22.663Z,16.95
2023-04-09T13:56:25.379Z,17.63
2023-04-09T14:01:29.496Z,16.05
2023-04-09T14:06:32.284Z,15.18
2023-04-09T14:11:35.324Z,14.77
2023-04-09T14:16:39.589Z,14.18
2023-04-09T14:21:42.343Z,12.90
2023-04-09T14:26:45.029Z,12.45
2023-04-09T14:31:49.133Z,11.07
2023-04-09T14:36:51.836Z,10.85
2023-04-09T14:41:54.997Z,10.60
2023-04-09T14:46:59.845Z,10.20
2023-04-09T14:52:02.797Z,9.30
2023-04-09T14:57:05.667Z,8.93
2023-04-09T15:02:09.773Z,8.80
2023-04-09T15:07:12.875Z,8.07
2023-04-09T15:12:15.597Z,8.68
2023-04-09T15:17:19.678Z,8.10
2023-04-09T15:22:22.554Z,8.15
2023-04-09T15:27:25.284Z,7.38
2023-04-09T15:32:29.975Z,5.85
2023-04-09T15:37:32.691Z,5.63
2023-04-09T15:42:35.384Z,5.80
2023-04-09T15:47:39.397Z,5.97
2023-04-09T15:52:42.387Z,6.00
2023-04-09T15:57:46.743Z,7.00
2023-04-09T16:02:50.815Z,6.90
2023-04-09T16:07:54.386Z,8.27
2023-04-09T16:12:57.100Z,8.40
2023-04-09T16:18:01.077Z,8.32
2023-04-09T16:23:03.760Z,7.38
2023-04-09T16:28:06.590Z,7.63
2023-04-09T16:33:10.664Z,8.02
2023-04-09T16:38:14.050Z,9.30
2023-04-09T16:43:16.710Z,9.15
2023-04-09T16:48:20.748Z,9.00
2023-04-09T16:53:23.442Z,9.55
2023-04-09T16:58:26.110Z,9.07
2023-04-09T17:03:30.576Z,8.40
2023-04-09T17:08:33.357Z,8.95
2023-04-09T17:13:36.473Z,8.65
2023-04-09T17:18:40.453Z,9.60
2023-04-09T17:23:44.122Z,10.02
2023-04-09T17:28:47.735Z,9.05
2023-04-09T17:33:51.746Z,9.43
2023-04-09T17:38:56.467Z,9.10
2023-04-09T17:43:59.233Z,10.10
2023-04-09T17:49:03.683Z,10.68
2023-04-09T17:54:06.632Z,11.60
2023-04-09T17:59:09.316Z,12.45
2023-04-09T18:04:13.873Z,11.95
2023-04-09T18:09:16.920Z,10.98
2023-04-09T18:14:19.681Z,11.02
2023-04-09T18:19:23.649Z,11.30
2023-04-09T18:24:26.765Z,13.23
2023-04-09T18:29:29.600Z,14.50
2023-04-09T18:34:33.579Z,14.13
2023-04-09T18:39:36.312Z,13.80
2023-04-09T18:44:38.971Z,13.65
2023-04-09T18:49:42.946Z,14.60
2023-04-09T18:54:45.593Z,13.40
2023-04-09T18:59:48.282Z,16.65
2023-04-09T19:04:52.677Z,16.17
2023-04-09T19:09:55.522Z,14.68
2023-04-09T19:15:00.202Z,16.25
2023-04-09T19:20:04.482Z,16.20
2023-04-09T19:25:08.436Z,17.25
2023-04-09T19:30:11.775Z,15.00
2023-04-09T19:35:15.756Z,14.75
2023-04-09T19:40:21.467Z,15.68
2023-04-09T19:45:24.163Z,17.70
2023-04-09T19:50:28.406Z,18.27
2023-04-09T19:55:31.320Z,32.75
2023-04-09T20:00:34.763Z,19.88
2023-04-09T20:05:38.793Z,19.02
2023-04-09T20:10:42.753Z,19.52
2023-04-09T20:15:45.446Z,20.95
2023-04-09T20:20:50.628Z,18.63
2023-04-09T20:25:54.635Z,19.13
2023-04-09T20:30:57.628Z,20.90
2023-04-09T20:36:01.796Z,20.02
2023-04-09T20:41:04.634Z,21.23
2023-04-09T20:46:07.430Z,21.17
2023-04-09T20:51:12.488Z,20.77
2023-04-09T20:56:15.142Z,22.80
2023-04-09T21:01:18.177Z,23.57
2023-04-09T21:06:22.286Z,21.40
2023-04-09T21:11:24.979Z,19.40
2023-04-09T21:16:29.703Z,20.23
2023-04-09T21:21:33.903Z,19.20
2023-04-09T21:26:49.981Z,19.07
2023-04-09T21:31:54.848Z,20.67
2023-04-09T21:36:59.063Z,20.67
2023-04-09T21:42:02.756Z,21.00
2023-04-09T21:47:07.569Z,23.87
2023-04-09T21:52:14.924Z,21.30
2023-04-09T21:57:18.421Z,20.67
2023-04-09T22:02:21.243Z,19.57
2023-04-09T22:07:25.755Z,21.83
2023-04-09T22:12:28.400Z,21.77
2023-04-09T22:17:31.271Z,21.73
2023-04-09T22:22:35.517Z,21.83
2023-04-09T22:27:38.316Z,22.70
2023-04-09T22:32:41.032Z,22.40
2023-04-09T22:37:45.690Z,23.53
2023-04-09T22:42:48.567Z,22.83
2023-04-09T22:47:51.382Z,22.60
2023-04-09T22:52:55.578Z,21.77
2023-04-09T22:57:59.538Z,22.67
2023-04-09T23:03:02.308Z,22.70
2023-04-09T23:08:06.659Z,23.47
2023-04-09T23:13:10.200Z,22.20
2023-04-09T23:18:12.903Z,22.57
2023-04-09T23:23:16.845Z,22.73
2023-04-09T23:28:19.491Z,22.57
2023-04-09T23:33:22.149Z,25.00
2023-04-09T23:38:26.225Z,22.73
2023-04-09T23:43:28.847Z,23.63
2023-04-09T23:48:31.527Z,23.13
2023-04-09T23:53:35.611Z,22.80
2023-04-09T23:58:38.247Z,23.60
